x

South Hatteras - 225 South Of Cape Hatteras (41002) Wave Buoy

2:50am - Wed 1st Oct 2014 All times are EDT. -4 hours from GMT.

  • Sig Wave height 3.0ft
  • Swell Direction
  • Peak Period 7s
  • Average Period 5s
  • Wind
    11mph, 13mph gusts
  • Sea Temp 80°f
  • 空気 Temp 78°f
  • Sea Pressure 1008.5mb
  • South Hatteras - 225 South Of Cape Hatteras
  • South Hatteras - 225 South Of Cape Hatteras

More Historic Weather Station data

Upgrade to MSW Pro to gain access to the past 30 days of data for over 8000 Wavebouys and Weather Stations around the globe.

Join Pro

Comparision Forecast

View Surf forecast
   
Wed 10/01 2:50am 3ft 7s 5s 11 13 mph 1008.5mb 80f 78f
1:50am 3.5ft 7s 5s 11 13 mph 1008.6mb 80f 77f
12:50am 3.5ft 7s 5s 9 11 mph 1008.7mb 80f 78f
Tue 09/30 11:50pm 3.5ft 8s 5s 7 9 mph 1008.8mb 80f 77f
10:50pm 3.5ft 6s 5s 9 11 mph 1008.5mb 81f 78f
9:50pm 3.5ft 7s 5s 11 13 mph 1008.3mb 80f 78f
8:50pm 3.5ft 5s 5s 4 7 mph 1008.4mb 80f 77f
7:50pm 3.5ft 7s 5s 7 9 mph 1008.2mb 81f 77f
6:50pm 3.5ft 6s 5s 13 16 mph 1007.5mb 81f 77f
5:50pm 3.5ft 7s 5s 16 20 mph 1007.1mb 81f 76f
4:50pm 3ft 7s 5s 16 18 mph 1007.1mb 81f 76f
3:50pm 3ft 7s 5s 11 13 mph 1007.6mb 81f 76f
2:50pm 3ft 8s 5s 11 13 mph 1007.7mb 80f 75f
1:50pm 3.5ft 7s 5s 13 16 mph 1008.6mb 80f 75f
12:50pm 3.5ft 4s 4s 11 16 mph 1009.6mb 80f 74f
11:50am 3ft 8s 4s 16 20 mph 1010.2mb 80f 74f
10:50am 3ft 8s 5s 16 20 mph 1010.6mb 80f 74f
9:50am 2.5ft 8s 6s 22 36 mph 1010.5mb 81f 76f
8:50am 2.5ft 8s 6s 4 7 mph 1010.6mb 81f 79f
7:50am 2.5ft 8s 6s 4
mph
1010.6mb 81f 79f
6:50am 2.5ft 8s 5s 4
mph
1010.4mb 81f 78f
5:50am 3ft 8s 6s 9 13 mph 1010.4mb 81f 78f
4:50am 2.5ft 8s 6s 9 11 mph 1010.3mb 81f 79f
3:50am 2.5ft 8s 6s 9
mph
1010.7mb 81f 79f
2:50am 2.5ft 8s 6s 4
mph
1011.3mb 81f 79f
1:50am 2.5ft 8s 6s 7 9 mph 1012.1mb 81f 79f
12:50am 2.5ft 8s 6s 9 11 mph 1012.2mb 81f 80f
Mon 09/29 11:50pm 2.5ft 8s 6s 9 11 mph 1012.7mb 81f 77f
10:50pm 2.5ft 8s 6s 9 11 mph 1013mb 81f 80f
9:50pm 2.5ft 7s 6s 9 11 mph 1013.1mb 81f 79f
8:50pm 2.5ft 8s 6s 9
mph
1013.1mb 81f 79f
7:50pm 2.5ft 9s 6s 7 9 mph 1012.9mb 81f 80f
6:50pm 3ft 8s 6s 7 9 mph 1012.8mb 81f 79f
5:50pm 2.5ft 8s 6s 7 9 mph 1012.8mb 82f 80f
4:50pm 2.5ft 7s 6s 7 9 mph 1012.7mb 82f 79f
3:50pm 2.5ft 8s 6s 7 9 mph 1012.8mb 82f 80f
2:50pm 2.5ft 8s 6s 7 9 mph 1013mb 82f 80f
1:50pm 2.5ft 7s 6s 7 9 mph 1013.8mb 82f 80f
12:50pm 2.5ft 8s 6s 9 11 mph 1014.6mb 82f 79f
11:50am 2.5ft 8s 6s 7 9 mph 1015mb 81f 80f
10:50am 2.5ft 8s 5s 7 9 mph 1015.3mb 81f 79f
9:50am 3ft 8s 6s 9 11 mph 1015.3mb 81f 79f
8:50am 3ft 8s 6s 9 11 mph 1015.2mb 81f 79f
7:50am 3ft 9s 6s 9 13 mph 1015.3mb 81f 79f
6:50am 3ft 8s 6s 9 11 mph 1015.2mb 81f 78f
5:50am 3ft 8s 6s 7 9 mph 1015.1mb 81f 78f
4:50am 3.5ft 9s 6s 9 11 mph 1014.8mb 81f 78f
3:50am 3.5ft 8s 6s 7 9 mph 1014.8mb 81f 78f
2:50am 3.5ft 8s 6s 7 9 mph 1015.3mb 81f 78f
1:50am 3.5ft 9s 6s 9 11 mph 1016.1mb 81f 79f
12:50am 3.5ft 8s 6s 9 11 mph 1016.5mb 81f 79f
Sun 09/28 11:50pm 3.5ft 9s 6s 9 11 mph 1016.7mb 81f 79f
10:50pm 3.5ft 8s 6s 11 16 mph 1016.8mb 81f 78f
9:50pm 3.5ft 8s 6s 9 11 mph 1016.8mb 81f 79f
8:50pm 3.5ft 8s 6s 9 11 mph 1016.9mb 81f 79f
7:50pm 3.5ft 7s 6s 11 13 mph 1016.6mb 81f 79f
6:50pm 3.5ft 8s 6s 9 11 mph 1016.4mb 81f 79f
5:50pm 3.5ft 8s 6s 7 9 mph 1016.4mb 82f 79f
4:50pm 4.5ft 8s 6s 9 11 mph 1016.4mb 82f 79f
3:50pm 4.5ft 8s 6s 9 11 mph 1016.8mb 82f 78f
2:50pm 4.5ft 8s 6s 11 13 mph 1017.1mb 81f 78f
1:50pm  -   -   -  11 13 mph 1017.7mb 81f 78f
12:50pm 4.5ft 9s 6s 11 13 mph 1018.4mb 81f 78f
11:50am 4.5ft 9s 6s 9 11 mph 1018.8mb 81f 78f
10:50am 4.5ft 9s 6s 9 11 mph 1019.1mb 81f 78f
9:50am 4.5ft 9s 6s 11 13 mph 1019.3mb 81f 78f
8:50am 5ft 10s 6s 9 11 mph 1019mb 81f 78f
7:50am 5ft 10s 6s 9 11 mph 1018.8mb 81f 78f
6:50am 5ft 10s 6s 7 9 mph 1018.4mb 81f 78f
5:50am 5ft 9s 6s 9 11 mph 1018.1mb 81f 78f
4:50am 5ft 10s 6s 9 11 mph 1017.9mb 81f 78f
2:50am 5ft 9s 6s 9 11 mph 1018.3mb 81f 78f
1:50am 5ft 8s 6s 11 13 mph 1018.5mb 81f 78f
12:50am 5ft 8s 6s 13
mph
1018.4mb 81f 79f
Sat 09/27 11:50pm 5ft 9s 6s 13 16 mph 1018.7mb 81f 79f
10:50pm 5.5ft 9s 6s 16 20 mph 1018.8mb 81f 79f
9:50pm 4.5ft 8s 6s 13 16 mph 1018.7mb 81f 79f
8:50pm 6ft 9s 7s 16 18 mph 1018.2mb 81f 79f
7:50pm 5ft 8s 6s 13 18 mph 1018mb 81f 78f
6:50pm 4.5ft 9s 6s 16 18 mph 1017.7mb 81f 78f
5:50pm 4.5ft 8s 6s 16 18 mph 1017.4mb 82f 79f
4:50pm 4.5ft 8s 6s 13 16 mph 1017.7mb 82f 79f
3:50pm 4.5ft 8s 7s 11 13 mph 1017.9mb 82f 79f
2:50pm 4.5ft 9s 7s 9 11 mph 1018.2mb 82f 79f
1:50pm 4.5ft 7s 7s 7
mph
1018.7mb 82f 79f
12:50pm 4.5ft 8s 6s 7
mph
1019.2mb 82f 79f
11:50am 4.5ft 8s 7s 7 9 mph 1019.3mb 82f 79f
10:50am 4.5ft 7s 6s 2 4 mph 1019.2mb 81f 79f
9:50am 4.5ft 8s 6s 9
mph
1019.1mb 81f 78f
8:50am 4.5ft 7s 6s 9 11 mph 1018.8mb 81f 77f
7:50am 5ft 7s 6s 9 11 mph 1018.6mb 81f 77f